sensor_id;sensor_type;location;lat;lon;timestamp;pressure;altitude;pressure_sealevel;temperature;humidity
59513;BME280;45330;51.634;5.562;2024-02-14T00:00:28;101323.34;;;7.17;100.00
59513;BME280;45330;51.634;5.562;2024-02-14T00:02:53;101325.13;;;7.21;100.00
59513;BME280;45330;51.634;5.562;2024-02-14T00:05:19;101325.06;;;7.16;100.00
59513;BME280;45330;51.634;5.562;2024-02-14T00:07:44;101319.16;;;7.25;100.00
59513;BME280;45330;51.634;5.562;2024-02-14T00:10:10;101301.84;;;7.21;100.00
59513;BME280;45330;51.634;5.562;2024-02-14T00:12:36;101285.28;;;7.10;100.00
59513;BME280;45330;51.634;5.562;2024-02-14T00:15:03;101301.75;;;7.15;100.00
59513;BME280;45330;51.634;5.562;2024-02-14T00:17:29;101307.13;;;7.27;100.00
59513;BME280;45330;51.634;5.562;2024-02-14T00:19:54;101317.53;;;7.30;100.00
59513;BME280;45330;51.634;5.562;2024-02-14T00:22:20;101306.28;;;7.30;100.00
59513;BME280;45330;51.634;5.562;2024-02-14T00:24:46;101312.44;;;7.38;100.00
59513;BME280;45330;51.634;5.562;2024-02-14T00:27:11;101304.75;;;7.43;100.00
59513;BME280;45330;51.634;5.562;2024-02-14T00:29:39;101301.31;;;7.44;100.00
59513;BME280;45330;51.634;5.562;2024-02-14T00:32:05;101303.06;;;7.46;100.00
59513;BME280;45330;51.634;5.562;2024-02-14T00:34:30;101294.44;;;7.46;100.00
59513;BME280;45330;51.634;5.562;2024-02-14T00:36:56;101286.72;;;7.49;100.00
59513;BME280;45330;51.634;5.562;2024-02-14T00:39:21;101259.75;;;7.33;100.00
59513;BME280;45330;51.634;5.562;2024-02-14T00:41:46;101297.09;;;7.52;100.00
59513;BME280;45330;51.634;5.562;2024-02-14T00:44:13;101305.78;;;7.54;100.00
59513;BME280;45330;51.634;5.562;2024-02-14T00:46:38;101305.81;;;7.57;100.00
59513;BME280;45330;51.634;5.562;2024-02-14T00:49:04;101298.97;;;7.62;100.00
59513;BME280;45330;51.634;5.562;2024-02-14T00:51:29;101292.94;;;7.63;100.00
59513;BME280;45330;51.634;5.562;2024-02-14T00:53:54;101273.00;;;7.56;100.00
59513;BME280;45330;51.634;5.562;2024-02-14T00:56:20;101276.53;;;7.63;100.00
59513;BME280;45330;51.634;5.562;2024-02-14T00:58:45;101265.22;;;7.54;100.00
59513;BME280;45330;51.634;5.562;2024-02-14T01:01:10;101254.03;;;7.57;100.00
59513;BME280;45330;51.634;5.562;2024-02-14T01:03:37;101262.66;;;7.59;100.00
59513;BME280;45330;51.634;5.562;2024-02-14T01:06:02;101286.19;;;7.75;100.00
59513;BME280;45330;51.634;5.562;2024-02-14T01:08:28;101288.72;;;7.71;100.00
59513;BME280;45330;51.634;5.562;2024-02-14T01:10:54;101263.59;;;7.63;100.00
59513;BME280;45330;51.634;5.562;2024-02-14T01:13:22;101290.59;;;7.82;100.00
59513;BME280;45330;51.634;5.562;2024-02-14T01:15:47;101287.25;;;7.89;100.00
59513;BME280;45330;51.634;5.562;2024-02-14T01:18:13;101277.69;;;7.83;100.00
59513;BME280;45330;51.634;5.562;2024-02-14T01:20:38;101293.31;;;7.91;100.00
59513;BME280;45330;51.634;5.562;2024-02-14T01:23:03;101289.84;;;7.90;100.00
59513;BME280;45330;51.634;5.562;2024-02-14T01:25:30;101295.88;;;7.91;100.00
59513;BME280;45330;51.634;5.562;2024-02-14T01:27:55;101272.38;;;7.74;100.00
59513;BME280;45330;51.634;5.562;2024-02-14T01:30:21;101289.91;;;7.95;100.00
59513;BME280;45330;51.634;5.562;2024-02-14T01:32:46;101286.38;;;7.90;100.00
59513;BME280;45330;51.634;5.562;2024-02-14T01:35:12;101297.72;;;8.00;100.00
59513;BME280;45330;51.634;5.562;2024-02-14T01:37:38;101295.13;;;8.01;100.00
59513;BME280;45330;51.634;5.562;2024-02-14T01:40:05;101291.72;;;8.05;100.00
59513;BME280;45330;51.634;5.562;2024-02-14T01:42:32;101271.75;;;7.94;100.00
59513;BME280;45330;51.634;5.562;2024-02-14T01:44:57;101268.31;;;7.96;100.00
59513;BME280;45330;51.634;5.562;2024-02-14T01:47:22;101281.44;;;8.10;100.00
59513;BME280;45330;51.634;5.562;2024-02-14T01:49:48;101270.03;;;7.97;100.00
59513;BME280;45330;51.634;5.562;2024-02-14T01:52:14;101290.94;;;8.13;100.00
59513;BME280;45330;51.634;5.562;2024-02-14T01:54:40;101276.28;;;8.13;100.00
59513;BME280;45330;51.634;5.562;2024-02-14T01:57:06;101289.25;;;8.15;100.00
59513;BME280;45330;51.634;5.562;2024-02-14T01:59:33;101256.31;;;8.04;100.00
59513;BME280;45330;51.634;5.562;2024-02-14T02:02:00;101283.28;;;8.20;100.00
59513;BME280;45330;51.634;5.562;2024-02-14T02:04:26;101268.44;;;8.08;100.00
59513;BME280;45330;51.634;5.562;2024-02-14T02:06:52;101278.97;;;8.24;100.00
59513;BME280;45330;51.634;5.562;2024-02-14T02:09:21;101260.72;;;8.13;100.00
59513;BME280;45330;51.634;5.562;2024-02-14T02:11:52;101268.50;;;8.15;100.00
59513;BME280;45330;51.634;5.562;2024-02-14T02:14:21;101279.03;;;8.27;100.00
59513;BME280;45330;51.634;5.562;2024-02-14T02:16:46;101206.84;;;7.83;100.00
59513;BME280;45330;51.634;5.562;2024-02-14T02:19:12;101255.47;;;8.07;100.00
59513;BME280;45330;51.634;5.562;2024-02-14T02:21:38;101292.88;;;8.31;100.00
59513;BME280;45330;51.634;5.562;2024-02-14T02:24:03;101286.81;;;8.30;100.00
59513;BME280;45330;51.634;5.562;2024-02-14T02:26:29;101291.13;;;8.30;100.00
59513;BME280;45330;51.634;5.562;2024-02-14T02:28:54;101292.00;;;8.29;100.00
59513;BME280;45330;51.634;5.562;2024-02-14T02:31:20;101290.28;;;8.31;100.00
59513;BME280;45330;51.634;5.562;2024-02-14T02:33:45;101295.47;;;8.31;100.00
59513;BME280;45330;51.634;5.562;2024-02-14T02:36:11;101286.81;;;8.30;100.00
59513;BME280;45330;51.634;5.562;2024-02-14T02:38:37;101285.94;;;8.28;100.00
59513;BME280;45330;51.634;5.562;2024-02-14T02:41:03;101283.34;;;8.28;100.00
59513;BME280;45330;51.634;5.562;2024-02-14T02:43:34;101287.69;;;8.29;100.00
59513;BME280;45330;51.634;5.562;2024-02-14T02:46:00;101285.00;;;8.21;100.00
59513;BME280;45330;51.634;5.562;2024-02-14T02:48:25;101290.13;;;8.15;100.00
59513;BME280;45330;51.634;5.562;2024-02-14T02:50:51;101284.97;;;8.18;100.00
59513;BME280;45330;51.634;5.562;2024-02-14T02:53:18;101291.03;;;8.19;100.00
59513;BME280;45330;51.634;5.562;2024-02-14T02:55:44;101284.94;;;8.17;100.00
59513;BME280;45330;51.634;5.562;2024-02-14T02:58:10;101262.31;;;8.00;100.00
59513;BME280;45330;51.634;5.562;2024-02-14T03:00:35;101268.47;;;8.10;100.00
59513;BME280;45330;51.634;5.562;2024-02-14T03:03:01;101273.69;;;8.15;100.00
59513;BME280;45330;51.634;5.562;2024-02-14T03:05:29;101258.06;;;8.07;100.00
59513;BME280;45330;51.634;5.562;2024-02-14T03:07:57;101249.31;;;7.97;100.00
59513;BME280;45330;51.634;5.562;2024-02-14T03:10:23;101264.97;;;8.06;100.00
59513;BME280;45330;51.634;5.562;2024-02-14T03:12:50;101264.16;;;8.11;100.00
59513;BME280;45330;51.634;5.562;2024-02-14T03:15:16;101263.25;;;8.08;100.00
59513;BME280;45330;51.634;5.562;2024-02-14T03:17:42;101273.66;;;8.10;100.00
59513;BME280;45330;51.634;5.562;2024-02-14T03:20:08;101289.31;;;8.22;100.00
59513;BME280;45330;51.634;5.562;2024-02-14T03:22:42;101290.28;;;8.31;100.00
59513;BME280;45330;51.634;5.562;2024-02-14T03:25:13;101287.72;;;8.34;100.00
59513;BME280;45330;51.634;5.562;2024-02-14T03:27:41;101267.75;;;8.27;100.00
59513;BME280;45330;51.634;5.562;2024-02-14T03:30:07;101303.34;;;8.38;100.00
59513;BME280;45330;51.634;5.562;2024-02-14T03:32:33;101293.06;;;8.48;100.00
59513;BME280;45330;51.634;5.562;2024-02-14T03:34:58;101267.91;;;8.40;100.00
59513;BME280;45330;51.634;5.562;2024-02-14T03:37:25;101294.00;;;8.51;100.00
59513;BME280;45330;51.634;5.562;2024-02-14T03:39:51;101291.41;;;8.53;100.00
59513;BME280;45330;51.634;5.562;2024-02-14T03:42:16;101302.72;;;8.61;100.00
59513;BME280;45330;51.634;5.562;2024-02-14T03:44:43;101276.66;;;8.49;100.00
59513;BME280;45330;51.634;5.562;2024-02-14T03:47:08;101300.13;;;8.58;100.00
59513;BME280;45330;51.634;5.562;2024-02-14T03:49:34;101295.81;;;8.62;100.00
59513;BME280;45330;51.634;5.562;2024-02-14T03:52:00;101302.78;;;8.67;100.00
59513;BME280;45330;51.634;5.562;2024-02-14T03:54:26;101301.00;;;8.65;100.00
59513;BME280;45330;51.634;5.562;2024-02-14T03:56:52;101284.53;;;8.56;100.00
59513;BME280;45330;51.634;5.562;2024-02-14T03:59:17;101282.81;;;8.57;100.00
59513;BME280;45330;51.634;5.562;2024-02-14T04:01:49;101308.84;;;8.69;100.00
59513;BME280;45330;51.634;5.562;2024-02-14T04:04:16;101298.44;;;8.66;100.00
59513;BME280;45330;51.634;5.562;2024-02-14T04:06:41;101306.28;;;8.72;100.00
59513;BME280;45330;51.634;5.562;2024-02-14T04:09:07;101319.28;;;8.75;100.00
59513;BME280;45330;51.634;5.562;2024-02-14T04:11:33;101299.28;;;8.64;100.00
59513;BME280;45330;51.634;5.562;2024-02-14T04:13:58;101312.34;;;8.74;100.00
59513;BME280;45330;51.634;5.562;2024-02-14T04:16:23;101303.69;;;8.72;100.00
59513;BME280;45330;51.634;5.562;2024-02-14T04:18:49;101319.38;;;8.85;100.00
59513;BME280;45330;51.634;5.562;2024-02-14T04:21:14;101317.66;;;8.87;100.00
59513;BME280;45330;51.634;5.562;2024-02-14T04:23:39;101323.69;;;8.87;100.00
59513;BME280;45330;51.634;5.562;2024-02-14T04:26:05;101328.00;;;8.84;100.00
59513;BME280;45330;51.634;5.562;2024-02-14T04:28:31;101315.84;;;8.77;100.00
59513;BME280;45330;51.634;5.562;2024-02-14T04:30:56;101272.41;;;8.57;100.00
59513;BME280;45330;51.634;5.562;2024-02-14T04:33:22;101330.69;;;8.93;100.00
59513;BME280;45330;51.634;5.562;2024-02-14T04:35:47;101344.53;;;8.92;100.00
59513;BME280;45330;51.634;5.562;2024-02-14T04:38:13;101321.03;;;8.78;100.00
59513;BME280;45330;51.634;5.562;2024-02-14T04:40:38;101331.53;;;8.89;100.00
59513;BME280;45330;51.634;5.562;2024-02-14T04:43:05;101348.81;;;8.90;100.00
59513;BME280;45330;51.634;5.562;2024-02-14T04:45:30;101333.16;;;8.78;100.00
59513;BME280;45330;51.634;5.562;2024-02-14T04:47:56;101347.03;;;8.86;100.00
59513;BME280;45330;51.634;5.562;2024-02-14T04:50:21;101306.19;;;8.65;100.00
59513;BME280;45330;51.634;5.562;2024-02-14T04:52:46;101315.75;;;8.69;100.00
59513;BME280;45330;51.634;5.562;2024-02-14T04:55:12;101340.13;;;8.83;100.00
59513;BME280;45330;51.634;5.562;2024-02-14T04:57:38;101318.31;;;8.64;100.00
59513;BME280;45330;51.634;5.562;2024-02-14T05:00:04;101355.63;;;8.77;100.00
59513;BME280;45330;51.634;5.562;2024-02-14T05:02:30;101354.78;;;8.78;100.00
59513;BME280;45330;51.634;5.562;2024-02-14T05:04:56;101354.81;;;8.84;100.00
59513;BME280;45330;51.634;5.562;2024-02-14T05:07:22;101360.91;;;8.88;100.00
59513;BME280;45330;51.634;5.562;2024-02-14T05:09:48;101332.25;;;8.74;100.00
59513;BME280;45330;51.634;5.562;2024-02-14T05:12:16;101340.13;;;8.83;100.00
59513;BME280;45330;51.634;5.562;2024-02-14T05:14:42;101359.19;;;8.90;100.00
59513;BME280;45330;51.634;5.562;2024-02-14T05:17:08;101327.97;;;8.78;100.00
59513;BME280;45330;51.634;5.562;2024-02-14T05:19:33;101362.63;;;8.87;100.00
59513;BME280;45330;51.634;5.562;2024-02-14T05:21:58;101360.00;;;8.84;100.00
59513;BME280;45330;51.634;5.562;2024-02-14T05:24:24;101365.19;;;8.81;100.00
59513;BME280;45330;51.634;5.562;2024-02-14T05:26:52;101338.25;;;8.68;100.00
59513;BME280;45330;51.634;5.562;2024-02-14T05:29:18;101350.44;;;8.77;100.00
59513;BME280;45330;51.634;5.562;2024-02-14T05:31:46;101329.63;;;8.69;100.00
59513;BME280;45330;51.634;5.562;2024-02-14T05:34:13;101352.16;;;8.77;100.00
59513;BME280;45330;51.634;5.562;2024-02-14T05:36:38;101366.00;;;8.79;100.00
59513;BME280;45330;51.634;5.562;2024-02-14T05:39:04;101364.31;;;8.81;100.00
59513;BME280;45330;51.634;5.562;2024-02-14T05:41:33;101344.25;;;8.64;100.00
59513;BME280;45330;51.634;5.562;2024-02-14T05:43:58;101289.53;;;8.41;100.00
59513;BME280;45330;51.634;5.562;2024-02-14T05:46:24;101365.19;;;8.81;100.00
59513;BME280;45330;51.634;5.562;2024-02-14T05:48:49;101366.91;;;8.81;100.00
59513;BME280;45330;51.634;5.562;2024-02-14T05:51:17;101347.72;;;8.66;100.00
59513;BME280;45330;51.634;5.562;2024-02-14T05:53:42;101379.91;;;8.84;100.00
59513;BME280;45330;51.634;5.562;2024-02-14T05:56:08;101356.50;;;8.78;100.00
59513;BME280;45330;51.634;5.562;2024-02-14T05:58:33;101352.09;;;8.70;100.00
59513;BME280;45330;51.634;5.562;2024-02-14T06:00:58;101365.13;;;8.75;100.00
59513;BME280;45330;51.634;5.562;2024-02-14T06:03:24;101357.34;;;8.77;100.00
59513;BME280;45330;51.634;5.562;2024-02-14T06:05:49;101369.50;;;8.81;100.00
59513;BME280;45330;51.634;5.562;2024-02-14T06:08:15;101375.59;;;8.84;100.00
59513;BME280;45330;51.634;5.562;2024-02-14T06:10:40;101370.38;;;8.83;100.00
59513;BME280;45330;51.634;5.562;2024-02-14T06:13:06;101379.94;;;8.87;100.00
59513;BME280;45330;51.634;5.562;2024-02-14T06:15:31;101379.94;;;8.88;100.00
59513;BME280;45330;51.634;5.562;2024-02-14T06:17:56;101381.66;;;8.85;100.00
59513;BME280;45330;51.634;5.562;2024-02-14T06:20:22;101379.06;;;8.85;100.00
59513;BME280;45330;51.634;5.562;2024-02-14T06:22:48;101368.56;;;8.74;100.00
59513;BME280;45330;51.634;5.562;2024-02-14T06:25:13;101378.97;;;8.79;100.00
59513;BME280;45330;51.634;5.562;2024-02-14T06:27:39;101397.25;;;8.88;100.00
59513;BME280;45330;51.634;5.562;2024-02-14T06:30:05;101373.75;;;8.74;100.00
59513;BME280;45330;51.634;5.562;2024-02-14T06:32:30;101383.31;;;8.77;100.00
59513;BME280;45330;51.634;5.562;2024-02-14T06:34:56;101403.28;;;8.84;100.00
59513;BME280;45330;51.634;5.562;2024-02-14T06:37:21;101416.28;;;8.88;100.00
59513;BME280;45330;51.634;5.562;2024-02-14T06:39:46;101389.31;;;8.72;100.00
59513;BME280;45330;51.634;5.562;2024-02-14T06:42:13;101404.16;;;8.87;100.00
59513;BME280;45330;51.634;5.562;2024-02-14T06:44:40;101414.59;;;8.92;100.00
59513;BME280;45330;51.634;5.562;2024-02-14T06:47:05;101417.22;;;8.93;100.00
59513;BME280;45330;51.634;5.562;2024-02-14T06:49:31;101404.94;;;8.79;100.00
59513;BME280;45330;51.634;5.562;2024-02-14T06:51:56;101423.28;;;8.96;100.00
59513;BME280;45330;51.634;5.562;2024-02-14T06:54:22;101417.22;;;8.97;100.00
59513;BME280;45330;51.634;5.562;2024-02-14T06:56:47;101409.34;;;8.87;100.00
59513;BME280;45330;51.634;5.562;2024-02-14T06:59:13;101424.19;;;8.98;100.00
59513;BME280;45330;51.634;5.562;2024-02-14T07:01:39;101423.34;;;9.00;100.00
59513;BME280;45330;51.634;5.562;2024-02-14T07:04:04;101415.53;;;8.99;100.00
59513;BME280;45330;51.634;5.562;2024-02-14T07:06:30;101422.44;;;9.00;100.00
59513;BME280;45330;51.634;5.562;2024-02-14T07:08:55;101439.78;;;9.04;100.00
59513;BME280;45330;51.634;5.562;2024-02-14T07:11:21;101419.81;;;8.97;100.00
59513;BME280;45330;51.634;5.562;2024-02-14T07:13:46;101405.06;;;8.89;100.00
59513;BME280;45330;51.634;5.562;2024-02-14T07:16:12;101419.88;;;9.03;100.00
59513;BME280;45330;51.634;5.562;2024-02-14T07:18:37;101437.22;;;9.08;100.00
59513;BME280;45330;51.634;5.562;2024-02-14T07:21:02;101456.31;;;9.12;100.00
59513;BME280;45330;51.634;5.562;2024-02-14T07:23:31;101442.47;;;9.12;100.00
59513;BME280;45330;51.634;5.562;2024-02-14T07:25:56;101440.75;;;9.14;100.00
59513;BME280;45330;51.634;5.562;2024-02-14T07:28:21;101443.38;;;9.18;100.00
59513;BME280;45330;51.634;5.562;2024-02-14T07:30:47;101441.69;;;9.20;100.00
59513;BME280;45330;51.634;5.562;2024-02-14T07:33:12;101427.75;;;9.12;100.00
59513;BME280;45330;51.634;5.562;2024-02-14T07:35:38;101437.38;;;9.24;100.00
59513;BME280;45330;51.634;5.562;2024-02-14T07:38:03;101417.38;;;9.10;100.00
59513;BME280;45330;51.634;5.562;2024-02-14T07:40:29;101439.94;;;9.18;100.00
59513;BME280;45330;51.634;5.562;2024-02-14T07:42:56;101425.13;;;9.07;100.00
59513;BME280;45330;51.634;5.562;2024-02-14T07:45:22;101441.69;;;9.19;100.00
59513;BME280;45330;51.634;5.562;2024-02-14T07:47:49;101425.13;;;9.07;100.00
59513;BME280;45330;51.634;5.562;2024-02-14T07:50:15;101445.13;;;9.16;100.00
59513;BME280;45330;51.634;5.562;2024-02-14T07:52:44;101454.66;;;9.19;100.00
59513;BME280;45330;51.634;5.562;2024-02-14T07:55:10;101445.97;;;9.18;100.00
59513;BME280;45330;51.634;5.562;2024-02-14T07:57:37;101452.06;;;9.20;100.00
59513;BME280;45330;51.634;5.562;2024-02-14T08:00:05;101439.91;;;9.15;100.00
59513;BME280;45330;51.634;5.562;2024-02-14T08:02:30;101440.75;;;9.14;100.00
59513;BME280;45330;51.634;5.562;2024-02-14T08:04:56;101437.31;;;9.16;100.00
59513;BME280;45330;51.634;5.562;2024-02-14T08:07:21;101457.31;;;9.25;100.00
59513;BME280;45330;51.634;5.562;2024-02-14T08:09:46;101462.50;;;9.26;100.00
59513;BME280;45330;51.634;5.562;2024-02-14T08:12:12;101464.25;;;9.27;100.00
59513;BME280;45330;51.634;5.562;2024-02-14T08:14:38;101461.69;;;9.29;100.00
59513;BME280;45330;51.634;5.562;2024-02-14T08:17:03;101473.84;;;9.33;100.00
59513;BME280;45330;51.634;5.562;2024-02-14T08:19:29;101466.03;;;9.33;100.00
59513;BME280;45330;51.634;5.562;2024-02-14T08:21:54;101471.25;;;9.33;100.00
59513;BME280;45330;51.634;5.562;2024-02-14T08:24:25;101472.16;;;9.37;100.00
59513;BME280;45330;51.634;5.562;2024-02-14T08:26:51;101467.81;;;9.36;100.00
59513;BME280;45330;51.634;5.562;2024-02-14T08:29:16;101441.69;;;9.22;100.00
59513;BME280;45330;51.634;5.562;2024-02-14T08:31:41;101463.53;;;9.41;100.00
59513;BME280;45330;51.634;5.562;2024-02-14T08:34:07;101455.75;;;9.41;100.00
59513;BME280;45330;51.634;5.562;2024-02-14T08:36:34;101467.00;;;9.44;100.00
59513;BME280;45330;51.634;5.562;2024-02-14T08:39:09;101468.75;;;9.46;100.00
59513;BME280;45330;51.634;5.562;2024-02-14T08:41:38;101472.28;;;9.52;100.00
59513;BME280;45330;51.634;5.562;2024-02-14T08:44:04;101443.56;;;9.37;100.00
59513;BME280;45330;51.634;5.562;2024-02-14T08:46:32;101464.44;;;9.49;100.00
59513;BME280;45330;51.634;5.562;2024-02-14T08:49:00;101476.59;;;9.55;100.00
59513;BME280;45330;51.634;5.562;2024-02-14T08:51:28;101460.13;;;9.47;100.00
59513;BME280;45330;51.634;5.562;2024-02-14T08:53:53;101462.75;;;9.54;100.00
59513;BME280;45330;51.634;5.562;2024-02-14T08:56:21;101483.66;;;9.68;100.00
59513;BME280;45330;51.634;5.562;2024-02-14T08:58:48;101477.66;;;9.78;100.00
59513;BME280;45330;51.634;5.562;2024-02-14T09:01:13;101478.56;;;9.84;100.00
59513;BME280;45330;51.634;5.562;2024-02-14T09:03:39;101469.03;;;9.81;100.00
59513;BME280;45330;51.634;5.562;2024-02-14T09:06:05;101471.72;;;9.92;100.00
59513;BME280;45330;51.634;5.562;2024-02-14T09:08:30;101456.94;;;9.86;100.00
59513;BME280;45330;51.634;5.562;2024-02-14T09:10:56;101461.28;;;9.87;100.00
59513;BME280;45330;51.634;5.562;2024-02-14T09:13:23;101481.28;;;9.99;100.00
59513;BME280;45330;51.634;5.562;2024-02-14T09:15:49;101476.94;;;10.01;100.00
59513;BME280;45330;51.634;5.562;2024-02-14T09:18:16;101467.38;;;9.95;100.00
59513;BME280;45330;51.634;5.562;2024-02-14T09:20:44;101490.88;;;10.11;100.00
59513;BME280;45330;51.634;5.562;2024-02-14T09:23:11;101491.78;;;10.11;100.00
59513;BME280;45330;51.634;5.562;2024-02-14T09:25:37;101500.44;;;10.18;100.00
59513;BME280;45330;51.634;5.562;2024-02-14T09:28:02;101498.75;;;10.19;100.00
59513;BME280;45330;51.634;5.562;2024-02-14T09:30:28;101503.88;;;10.12;100.00
59513;BME280;45330;51.634;5.562;2024-02-14T09:32:53;101494.38;;;10.13;100.00
59513;BME280;45330;51.634;5.562;2024-02-14T09:35:18;101503.94;;;10.16;100.00
59513;BME280;45330;51.634;5.562;2024-02-14T09:37:44;101498.69;;;10.12;100.00
59513;BME280;45330;51.634;5.562;2024-02-14T09:40:09;101484.78;;;10.04;100.00
59513;BME280;45330;51.634;5.562;2024-02-14T09:45:08;101506.56;;;10.22;100.00
59513;BME280;45330;51.634;5.562;2024-02-14T09:47:35;101510.94;;;10.29;100.00
59513;BME280;45330;51.634;5.562;2024-02-14T09:50:02;101492.69;;;10.23;100.00
59513;BME280;45330;51.634;5.562;2024-02-14T09:52:32;101510.94;;;10.32;100.00
59513;BME280;45330;51.634;5.562;2024-02-14T09:54:58;101516.22;;;10.38;100.00
59513;BME280;45330;51.634;5.562;2024-02-14T09:57:25;101511.03;;;10.35;100.00
59513;BME280;45330;51.634;5.562;2024-02-14T09:59:53;101512.78;;;10.45;100.00
59513;BME280;45330;51.634;5.562;2024-02-14T10:02:19;101500.66;;;10.47;100.00
59513;BME280;45330;51.634;5.562;2024-02-14T10:04:45;101499.84;;;10.55;100.00
59513;BME280;45330;51.634;5.562;2024-02-14T10:07:10;101519.00;;;10.77;100.00
59513;BME280;45330;51.634;5.562;2024-02-14T10:09:43;101501.63;;;10.70;100.00
59513;BME280;45330;51.634;5.562;2024-02-14T10:12:09;101502.47;;;10.70;100.00
59513;BME280;45330;51.634;5.562;2024-02-14T10:14:35;101515.56;;;10.81;100.00
59513;BME280;45330;51.634;5.562;2024-02-14T10:17:02;101517.31;;;10.88;100.00
59513;BME280;45330;51.634;5.562;2024-02-14T10:19:28;101526.00;;;10.93;100.00
59513;BME280;45330;51.634;5.562;2024-02-14T10:22:00;101504.28;;;10.90;100.00
59513;BME280;45330;51.634;5.562;2024-02-14T10:24:28;101531.22;;;10.96;100.00
59513;BME280;45330;51.634;5.562;2024-02-14T10:26:54;101528.63;;;10.90;100.00
59513;BME280;45330;51.634;5.562;2024-02-14T10:29:21;101529.47;;;10.81;100.00
59513;BME280;45330;51.634;5.562;2024-02-14T10:31:47;101526.00;;;10.92;100.00
59513;BME280;45330;51.634;5.562;2024-02-14T10:34:13;101510.34;;;10.79;100.00
59513;BME280;45330;51.634;5.562;2024-02-14T10:36:41;101516.41;;;10.80;100.00
59513;BME280;45330;51.634;5.562;2024-02-14T10:39:09;101543.38;;;10.91;100.00
59513;BME280;45330;51.634;5.562;2024-02-14T10:41:36;101547.75;;;10.97;100.00
59513;BME280;45330;51.634;5.562;2024-02-14T10:44:05;101548.59;;;10.99;100.00
59513;BME280;45330;51.634;5.562;2024-02-14T10:46:37;101525.13;;;10.90;100.00
59513;BME280;45330;51.634;5.562;2024-02-14T10:49:04;101540.78;;;11.07;100.00
59513;BME280;45330;51.634;5.562;2024-02-14T10:51:34;101487.81;;;10.83;100.00
59513;BME280;45330;51.634;5.562;2024-02-14T10:54:18;101521.75;;;11.15;100.00
59513;BME280;45330;51.634;5.562;2024-02-14T10:56:49;101522.59;;;11.22;100.00
59513;BME280;45330;51.634;5.562;2024-02-14T10:59:17;101541.75;;;11.37;100.00
59513;BME280;45330;51.634;5.562;2024-02-14T11:01:45;101519.13;;;11.26;100.00
59513;BME280;45330;51.634;5.562;2024-02-14T11:04:11;101544.38;;;11.41;100.00
59513;BME280;45330;51.634;5.562;2024-02-14T11:06:52;101546.13;;;11.42;100.00
59513;BME280;45330;51.634;5.562;2024-02-14T11:09:31;101541.75;;;11.35;100.00
59513;BME280;45330;51.634;5.562;2024-02-14T11:12:01;101540.03;;;11.29;100.00
59513;BME280;45330;51.634;5.562;2024-02-14T11:14:32;101530.44;;;11.30;100.00
59513;BME280;45330;51.634;5.562;2024-02-14T11:17:01;101528.72;;;11.46;100.00
59513;BME280;45330;51.634;5.562;2024-02-14T11:19:33;101512.25;;;11.58;100.00
59513;BME280;45330;51.634;5.562;2024-02-14T11:22:13;101502.69;;;11.66;100.00
59513;BME280;45330;51.634;5.562;2024-02-14T11:24:45;101527.91;;;11.86;100.00
59513;BME280;45330;51.634;5.562;2024-02-14T11:27:14;101507.88;;;11.80;100.00
59513;BME280;45330;51.634;5.562;2024-02-14T11:29:40;101522.69;;;11.86;100.00
59513;BME280;45330;51.634;5.562;2024-02-14T11:32:07;101527.03;;;11.79;100.00
59513;BME280;45330;51.634;5.562;2024-02-14T11:34:35;101500.06;;;11.60;100.00
59513;BME280;45330;51.634;5.562;2024-02-14T11:37:01;101509.66;;;11.58;100.00
59513;BME280;45330;51.634;5.562;2024-02-14T11:39:26;101518.31;;;11.60;100.00
59513;BME280;45330;51.634;5.562;2024-02-14T11:41:51;101498.34;;;11.45;100.00
59513;BME280;45330;51.634;5.562;2024-02-14T11:44:19;101499.19;;;11.47;100.00
59513;BME280;45330;51.634;5.562;2024-02-14T11:46:47;101490.50;;;11.40;100.00
59513;BME280;45330;51.634;5.562;2024-02-14T11:49:12;101472.25;;;11.23;100.00
59513;BME280;45330;51.634;5.562;2024-02-14T11:51:38;101516.56;;;11.43;100.00
59513;BME280;45330;51.634;5.562;2024-02-14T11:54:05;101504.41;;;11.36;100.00
59513;BME280;45330;51.634;5.562;2024-02-14T11:56:36;101505.25;;;11.26;100.00
59513;BME280;45330;51.634;5.562;2024-02-14T11:59:03;101505.25;;;11.20;100.00
59513;BME280;45330;51.634;5.562;2024-02-14T12:01:37;101506.13;;;11.25;100.00
59513;BME280;45330;51.634;5.562;2024-02-14T12:04:05;101506.97;;;11.21;100.00
59513;BME280;45330;51.634;5.562;2024-02-14T12:06:31;101508.72;;;11.22;100.00
59513;BME280;45330;51.634;5.562;2024-02-14T12:09:00;101503.50;;;11.14;100.00
59513;BME280;45330;51.634;5.562;2024-02-14T12:11:31;101503.50;;;11.12;100.00
59513;BME280;45330;51.634;5.562;2024-02-14T12:14:00;101485.25;;;11.00;100.00
59513;BME280;45330;51.634;5.562;2024-02-14T12:16:26;101503.47;;;11.06;100.00
59513;BME280;45330;51.634;5.562;2024-02-14T12:19:03;101506.09;;;11.03;100.00
59513;BME280;45330;51.634;5.562;2024-02-14T12:21:38;101510.44;;;11.06;100.00
59513;BME280;45330;51.634;5.562;2024-02-14T12:24:06;101488.72;;;10.97;100.00
59513;BME280;45330;51.634;5.562;2024-02-14T12:26:33;101494.81;;;11.09;100.00
59513;BME280;45330;51.634;5.562;2024-02-14T12:29:01;101492.16;;;10.99;100.00
59513;BME280;45330;51.634;5.562;2024-02-14T12:31:27;101506.06;;;11.00;100.00
59513;BME280;45330;51.634;5.562;2024-02-14T12:33:53;101506.03;;;10.95;100.00
59513;BME280;45330;51.634;5.562;2024-02-14T12:36:20;101478.25;;;10.79;100.00
59513;BME280;45330;51.634;5.562;2024-02-14T12:38:46;101501.69;;;10.90;100.00
59513;BME280;45330;51.634;5.562;2024-02-14T12:41:11;101506.03;;;10.89;100.00
59513;BME280;45330;51.634;5.562;2024-02-14T12:43:37;101474.75;;;10.75;100.00
59513;BME280;45330;51.634;5.562;2024-02-14T12:46:02;101491.28;;;10.87;100.00